VOBZ/VGA METAR and TAF weather

Enter ICAO airport designator
Station Type Date Time Source
VOBZ METAR 2021/09/16 10:30 UTC NOAA

VOBZ 161030Z 29007KT 6000 FEW020 SCT100 34/23 Q1003 NOSIG


Station Type Date Time Source
VOBZ Decoded METAR 2021/09/16 10:30 UTC NOAA

Vijayawada / Gannavaram, India (VOBZ) 16-32N 080-48E 24M
Sep 16, 2021 - 06:30 AM EDT / 2021.09.16 1030 UTC
Wind: from the WNW (290 degrees) at 8 MPH (7 KT):0
Visibility: 3 mile(s):0
Sky conditions: partly cloudy
Temperature: 93 F (34 C)
Heat index: 101.8 F (38.8 C):1
Dew Point: 73 F (23 C)
Relative Humidity: 52%
Pressure (altimeter): 29.62 in. Hg (1003 hPa)
ob: VOBZ 161030Z 29007KT 6000 FEW020 SCT100 34/23 Q1003 NOSIG
cycle: 10

Station Type Date Time Source
VOBZ TAF 2021/09/14 18:00 UTC NOAA

TAF VOBZ 141700Z 1418/1524 25006KT 5000 BR -DZ SCT015 BKN080
TEMPO 1500/1503 3000 RA BR SCT010 BKN080
BECMG 1504/1505 28008KT 6000 SCT015 SCT025 BKN100
TEMPO 1510/1516 3000 -TSRA RA SCT015 SCT025 FEW030CB BKN080

Example: see airport list